Hammonton Muni (N81)
Hammonton, NJ
Field Elevation: 65
Lat: 39°40.04N  Long: 74°45.46W
CTAF/Unicom Freq: 122.7000
   
    
Weather Advisories
2017-06-24   18:56 Z
Altimeter 29.80" Hg
Wind 350° @ 8 KT
Gusts 15 KT
Visibility 10 SM
Ceiling FEW058
Temperature 29° C (84° F)
Dewpoint 18° C (64° F)
Relative Humidity 51%
Density Altitude 1,800 feet
Condensation Altitude 5,600 feet
Heat Index: 30° C (86° F)
Wind and Runways
Indicated Runway = 03
Headwind = 6 kt
Crosswind = 5 kt
History
 
 
 
More Info
All DigiWx sites map
 
NOAA Forecast
 
Airport IQ 5010
(OCNJ) Ocean City
(39N) Princeton, NJ
 
about DigiWx
 
FAA Disclaimer: The data displayed is for advisory purposes only and is not to be used for flight planning or operations. For official data, please call (not available) to hear the current automated AWOS voice message.
  METAR N81 241856Z AUTO 35008G15KT 10 SM FEW058 29/18 A2980